Pagina principală
METAR-TAF:

METAR-TAF

Aeroporturi :

Riberalta, Bolivia

Latitudine: 11-00S, longitudine: 066-07W, elevație: 141 m

Observații meteo curente

Raportul a fost făcut în urmă cu 5 ore și 33 de minute, la 22:00 UTC
Vânt calm
Temperatură 26°C
Umiditate 94%
Presiune 1011 hPa
Vizibilitate de 10 km sau mai mult
Nori împrăștiați la o înălțime de 800 picior
Nori puțini la o înălțime de 2000 picior, Cumulonimbus.
Nori fragmentați la o înălțime de 8000 picior

METAR: SLRI 242200Z 00000KT 9999 SCT008 FEW020CB BKN080 26/25 Q1011

Ora: 23:33 (03:33 UTC)


TAF: lipsă

Observații și prognoze meteo pentru peste 4.000 de aeroporturi (rapoarte METAR și TAF).

Stațiile disponibile sunt reprezentate pe hartă prin puncte galbene și roșii.

Țineți indicatorul mouse-ului pe punctul dorit pentru a vedea denumirea stației.

Apoi, faceți clic pentru a vedea observațiile și prognozele meteorologice.

Pentru a schimba harta: Pentru mărire, faceți clic pe butoanele verzi cu cruce neagră; pentru micșorare, pe butonul verde cu o liniuță; pentru hărți învecinate, pe săgețile verzi.


METAR-TAF: